Time;durP1;ratioP1;P1;durP2;ratioP2;P2;SDS_P1;SDS_P2;PMS_P1;PMS_P2;Temp;Humidity;BMP_temperature;BMP_pressure;BME280_temperature;BME280_humidity;BME280_pressure;Samples;Min_cycle;Max_cycle;Signal;HPM_P1;HPM_P2
2021/04/03 00:02:12;;;;;;;11.45;8.85;;;4.10;96.90;;;;;;6273982;28;20835;-81
2021/04/03 00:05:13;;;;;;;10.63;7.65;;;4.80;97.10;;;;;;6257611;28;20032;-81
2021/04/03 00:08:13;;;;;;;10.10;8.18;;;4.10;97.30;;;;;;6257543;28;20521;-80
2021/04/03 00:11:19;;;;;;;9.77;7.75;;;4.40;97.00;;;;;;6290913;28;20029;-80
2021/04/03 00:14:20;;;;;;;12.35;7.45;;;4.40;97.10;;;;;;6274894;28;20031;-81
2021/04/03 00:17:21;;;;;;;12.20;8.00;;;5.40;97.60;;;;;;6291687;28;20453;-80
2021/04/03 00:20:23;;;;;;;11.88;8.88;;;4.60;97.70;;;;;;6292141;28;20033;-81
2021/04/03 00:23:24;;;;;;;10.88;8.95;;;3.90;97.30;;;;;;6274021;28;20021;-80
2021/04/03 00:26:25;;;;;;;12.68;9.15;;;3.70;99.90;;;;;;6273581;28;20040;-80
2021/04/03 00:29:25;;;;;;;12.27;9.38;;;3.80;97.40;;;;;;6290357;28;20730;-80
2021/04/03 00:32:26;;;;;;;14.25;8.48;;;5.40;98.20;;;;;;6294810;28;20033;-80
2021/04/03 00:35:31;;;;;;;10.77;8.50;;;3.80;96.50;;;;;;6295110;28;20229;-81
2021/04/03 00:38:32;;;;;;;10.93;8.50;;;3.80;95.50;;;;;;6294840;28;20356;-80
2021/04/03 00:41:32;;;;;;;10.98;8.65;;;3.70;99.90;;;;;;6261104;28;20052;-80
2021/04/03 00:44:33;;;;;;;12.20;9.20;;;5.60;98.00;;;;;;6295792;28;20459;-80
2021/04/03 00:47:34;;;;;;;12.15;9.50;;;4.50;97.50;;;;;;6294864;28;20037;-80
2021/04/03 00:50:36;;;;;;;15.18;10.00;;;4.00;97.30;;;;;;6277896;28;20052;-80
2021/04/03 00:53:37;;;;;;;13.48;8.93;;;6.00;97.70;;;;;;6261377;28;20457;-80
2021/04/03 00:56:37;;;;;;;11.68;8.30;;;4.00;97.50;;;;;;6261169;28;20090;-81
2021/04/03 00:59:38;;;;;;;13.90;9.05;;;4.30;97.60;;;;;;6294219;28;20029;-80
2021/04/03 01:02:39;;;;;;;10.05;8.40;;;3.90;97.20;;;;;;6294089;28;20167;-79
2021/04/03 01:05:39;;;;;;;11.65;8.15;;;4.50;97.90;;;;;;6294276;28;20386;-80
2021/04/03 01:08:40;;;;;;;10.82;8.43;;;3.30;97.60;;;;;;6277336;28;20032;-80
2021/04/03 01:11:44;;;;;;;11.27;8.15;;;3.70;97.50;;;;;;6261085;28;20028;-80
2021/04/03 01:15:10;;;;;;;11.40;8.50;;;3.80;97.90;;;;;;6277394;28;20063;-80
2021/04/03 01:18:37;;;;;;;11.73;7.22;;;2.90;96.80;;;;;;6270278;28;20032;-80
2021/04/03 01:21:49;;;;;;;10.85;8.02;;;2.90;97.00;;;;;;6282609;28;20048;-81
2021/04/03 01:25:36;;;;;;;11.05;7.88;;;3.20;97.00;;;;;;6294984;28;20024;-80
2021/04/03 01:28:48;;;;;;;12.70;8.52;;;2.90;96.60;;;;;;6275311;28;20083;-80
2021/04/03 01:31:50;;;;;;;12.97;8.70;;;3.60;98.80;;;;;;6293587;28;20025;-80
2021/04/03 01:34:50;;;;;;;10.95;8.45;;;3.10;98.40;;;;;;6277007;28;20259;-80
2021/04/03 01:38:28;;;;;;;11.43;8.45;;;4.20;98.50;;;;;;6276364;28;20490;-80
2021/04/03 01:41:30;;;;;;;13.40;7.97;;;3.20;99.90;;;;;;6292563;28;20146;-80
2021/04/03 01:44:45;;;;;;;10.90;8.10;;;3.30;98.10;;;;;;6276200;28;20051;-80
2021/04/03 01:47:46;;;;;;;10.18;8.43;;;3.00;96.80;;;;;;6278120;28;20078;-80
2021/04/03 01:50:46;;;;;;;12.88;8.00;;;2.80;98.30;;;;;;6276230;28;20060;-80
2021/04/03 01:53:47;;;;;;;11.57;8.10;;;2.90;98.00;;;;;;6292832;28;20029;-80
2021/04/03 01:56:48;;;;;;;11.20;7.78;;;3.50;98.20;;;;;;6292906;28;20029;-80
2021/04/03 01:59:49;;;;;;;11.32;7.65;;;3.40;98.10;;;;;;6276419;28;20064;-80
2021/04/03 02:02:50;;;;;;;10.15;8.15;;;3.50;98.60;;;;;;6276212;28;20032;-80
2021/04/03 02:05:50;;;;;;;10.85;8.50;;;3.70;98.60;;;;;;6276314;28;20471;-80
2021/04/03 02:08:51;;;;;;;10.02;7.90;;;2.60;98.40;;;;;;6275917;28;20111;-80
2021/04/03 02:11:52;;;;;;;14.75;8.57;;;2.90;98.60;;;;;;6276016;28;20055;-80
2021/04/03 02:14:52;;;;;;;11.90;8.07;;;4.10;99.10;;;;;;6275755;28;20029;-80
2021/04/03 02:17:55;;;;;;;11.25;7.65;;;2.90;98.90;;;;;;6275700;28;20779;-80
2021/04/03 02:20:58;;;;;;;11.18;8.35;;;3.30;98.90;;;;;;6259531;28;20105;-80
2021/04/03 02:23:58;;;;;;;13.57;8.52;;;3.90;99.30;;;;;;6291793;28;20039;-80
2021/04/03 02:26:59;;;;;;;12.75;8.93;;;4.00;99.50;;;;;;6275347;28;20033;-80
2021/04/03 02:30:11;;;;;;;12.07;9.00;;;3.50;99.70;;;;;;6292184;28;20107;-80
2021/04/03 02:33:13;;;;;;;12.02;8.60;;;2.20;99.20;;;;;;6277271;28;20024;-80
2021/04/03 02:36:13;;;;;;;13.07;8.63;;;2.60;99.20;;;;;;6291915;28;20044;-80
2021/04/03 02:39:14;;;;;;;15.10;9.48;;;2.30;99.30;;;;;;6293358;28;20480;-80
2021/04/03 02:42:19;;;;;;;14.25;8.68;;;1.60;99.90;;;;;;6291407;28;20058;-80
2021/04/03 02:45:20;;;;;;;14.02;9.80;;;1.90;99.90;;;;;;6275439;28;20047;-80
2021/04/03 02:48:21;;;;;;;13.68;8.68;;;;;;;;;;6275416;28;20488;-80
2021/04/03 02:51:27;;;;;;;13.80;8.23;;;2.20;99.90;;;;;;6293142;28;20021;-79
2021/04/03 02:54:28;;;;;;;12.25;9.07;;;2.30;99.90;;;;;;6275731;28;20028;-80
2021/04/03 02:57:30;;;;;;;12.00;8.70;;;2.30;99.90;;;;;;6275412;28;20016;-80
2021/04/03 03:00:30;;;;;;;15.68;9.63;;;2.40;99.90;;;;;;6291659;28;20025;-79
2021/04/03 03:03:31;;;;;;;18.45;11.95;;;;;;;;;;6291249;28;20381;-80
2021/04/03 03:06:32;;;;;;;14.32;10.30;;;2.60;99.90;;;;;;6291335;28;20061;-80
2021/04/03 03:09:33;;;;;;;22.42;11.98;;;3.30;99.70;;;;;;6274997;28;20032;-79
2021/04/03 03:12:33;;;;;;;21.08;11.98;;;4.20;99.30;;;;;;6274528;28;20130;-79
2021/04/03 03:15:34;;;;;;;18.52;11.75;;;5.20;98.20;;;;;;6274726;28;20033;-80
2021/04/03 03:18:34;;;;;;;21.77;11.90;;;4.30;97.50;;;;;;6291231;28;20437;-80
2021/04/03 03:21:38;;;;;;;18.02;11.48;;;4.30;97.00;;;;;;6274615;28;20032;-79
2021/04/03 03:24:39;;;;;;;18.38;12.32;;;5.10;97.40;;;;;;6274352;28;20114;-80
2021/04/03 03:27:43;;;;;;;16.38;11.75;;;4.70;97.10;;;;;;6291131;28;20032;-80
2021/04/03 03:30:44;;;;;;;19.23;11.98;;;4.10;95.30;;;;;;6275047;28;20113;-80
2021/04/03 03:33:44;;;;;;;21.02;12.23;;;5.20;96.20;;;;;;6275160;28;20033;-79
2021/04/03 03:36:45;;;;;;;18.42;11.98;;;4.80;95.60;;;;;;6291706;28;20035;-80
2021/04/03 03:39:45;;;;;;;20.38;11.85;;;4.60;95.60;;;;;;6291512;28;20490;-80
2021/04/03 03:42:46;;;;;;;20.63;11.77;;;4.40;95.50;;;;;;6274240;28;20053;-80
2021/04/03 03:45:47;;;;;;;21.52;11.43;;;5.50;95.60;;;;;;6274784;28;20123;-79
2021/04/03 03:48:48;;;;;;;14.93;10.45;;;4.70;99.90;;;;;;6274441;28;20739;-79
2021/04/03 03:51:48;;;;;;;21.58;12.10;;;5.30;99.30;;;;;;6291128;28;20458;-80
2021/04/03 03:54:49;;;;;;;20.58;12.68;;;4.30;98.60;;;;;;6291635;28;20133;-80
2021/04/03 03:57:50;;;;;;;20.25;12.48;;;4.60;99.20;;;;;;6274644;28;20441;-80
2021/04/03 04:00:50;;;;;;;24.15;12.57;;;4.70;99.10;;;;;;6290940;28;20668;-80
2021/04/03 04:03:51;;;;;;;23.23;12.20;;;4.80;99.00;;;;;;6291245;28;20103;-80
2021/04/03 04:06:53;;;;;;;18.58;11.27;;;4.30;99.30;;;;;;6294730;28;20044;-80
2021/04/03 04:09:53;;;;;;;17.33;11.40;;;4.90;99.50;;;;;;6279139;28;20024;-80
2021/04/03 04:12:54;;;;;;;25.90;12.68;;;4.30;99.30;;;;;;6295876;28;20052;-80
2021/04/03 04:15:54;;;;;;;18.08;10.93;;;4.60;99.90;;;;;;6278816;28;20025;-80
2021/04/03 04:18:55;;;;;;;20.08;12.80;;;4.40;99.70;;;;;;6295707;28;20383;-80
2021/04/03 04:21:55;;;;;;;21.95;12.57;;;5.30;99.90;;;;;;6279252;28;20118;-80
2021/04/03 04:24:56;;;;;;;19.75;11.38;;;4.30;99.90;;;;;;6296491;28;20485;-80
2021/04/03 04:27:57;;;;;;;17.80;11.75;;;4.90;99.90;;;;;;6262302;28;20444;-80
2021/04/03 04:30:57;;;;;;;28.92;15.68;;;4.80;99.90;;;;;;6296623;28;20104;-80
2021/04/03 04:33:58;;;;;;;22.88;13.40;;;4.20;99.90;;;;;;6296733;28;20028;-80
2021/04/03 04:37:00;;;;;;;19.15;11.93;;;3.90;99.90;;;;;;6296148;28;20522;-80
2021/04/03 04:40:04;;;;;;;;;;;4.00;99.90;;;;;;6295740;28;20028;-80
2021/04/03 04:43:04;;;;;;;;;;;4.10;99.90;;;;;;6294856;28;20389;-80
2021/04/03 04:46:05;;;;;;;18.17;12.00;;;3.90;99.90;;;;;;6278328;28;19917;-80
2021/04/03 04:49:05;;;;;;;21.98;11.13;;;3.80;99.90;;;;;;6278224;28;20032;-79
2021/04/03 04:52:06;;;;;;;16.95;11.13;;;3.70;99.90;;;;;;6295261;28;20031;-80
2021/04/03 04:55:07;;;;;;;16.35;10.98;;;3.60;99.90;;;;;;6277966;28;20149;-80
2021/04/03 04:58:08;;;;;;;20.05;12.68;;;3.70;99.90;;;;;;6294754;28;20056;-80
2021/04/03 05:01:08;;;;;;;20.13;11.32;;;3.60;99.90;;;;;;6278081;28;20378;-80
2021/04/03 05:04:09;;;;;;;19.77;13.55;;;4.70;99.90;;;;;;6295453;28;20082;-80
2021/04/03 05:07:09;;;;;;;22.08;11.60;;;4.10;99.90;;;;;;6277997;28;20043;-80
2021/04/03 05:10:13;;;;;;;18.35;11.80;;;3.60;99.90;;;;;;6277795;28;20050;-80
2021/04/03 05:13:14;;;;;;;20.85;12.90;;;3.30;99.90;;;;;;6294467;28;20467;-80
2021/04/03 05:16:15;;;;;;;18.85;11.70;;;3.30;99.90;;;;;;6293807;28;20028;-80
2021/04/03 05:19:15;;;;;;;18.05;11.93;;;3.10;99.90;;;;;;6293842;28;20467;-80
2021/04/03 05:22:16;;;;;;;18.38;11.13;;;3.60;99.90;;;;;;6294357;28;20028;-80
2021/04/03 05:25:16;;;;;;;19.63;11.70;;;3.20;99.90;;;;;;6294127;28;20482;-80
2021/04/03 05:28:25;;;;;;;24.33;13.63;;;3.40;99.90;;;;;;6260948;28;20455;-80
2021/04/03 05:31:25;;;;;;;19.25;11.35;;;3.30;99.90;;;;;;6293942;28;20536;-80
2021/04/03 05:34:26;;;;;;;16.58;10.65;;;3.40;99.90;;;;;;6295033;28;20028;-80
2021/04/03 05:37:26;;;;;;;19.13;11.00;;;3.30;99.90;;;;;;6294736;28;20032;-80
2021/04/03 05:40:27;;;;;;;23.73;14.95;;;4.50;99.90;;;;;;6277100;28;20040;-80
2021/04/03 05:43:28;;;;;;;22.20;12.77;;;3.30;99.90;;;;;;6295019;28;20053;-80
2021/04/03 05:46:28;;;;;;;19.30;12.55;;;3.40;99.90;;;;;;6293031;28;20048;-80
2021/04/03 05:49:29;;;;;;;16.20;11.48;;;4.30;99.90;;;;;;6276932;28;20086;-80
2021/04/03 05:52:30;;;;;;;18.02;11.77;;;4.80;99.90;;;;;;6294698;28;20071;-80
2021/04/03 05:55:30;;;;;;;16.40;10.43;;;5.30;99.90;;;;;;6277150;28;20475;-80
2021/04/03 05:58:31;;;;;;;16.88;11.55;;;5.40;99.90;;;;;;6294367;28;20024;-80
2021/04/03 06:01:34;;;;;;;14.95;9.15;;;5.70;99.90;;;;;;6294491;28;20471;-80
2021/04/03 06:04:34;;;;;;;14.82;9.00;;;6.60;96.00;;;;;;6293221;28;20474;-80
2021/04/03 06:07:35;;;;;;;15.93;9.65;;;8.50;88.30;;;;;;6294358;28;20025;-80
2021/04/03 06:10:36;;;;;;;47.95;25.20;;;6.90;87.10;;;;;;6259851;28;20558;-80
2021/04/03 06:13:37;;;;;;;18.23;12.00;;;6.70;86.10;;;;;;6259673;28;20131;-80
2021/04/03 06:16:49;;;;;;;14.38;9.77;;;7.60;95.00;;;;;;6259685;28;20090;-80
2021/04/03 06:19:50;;;;;;;15.40;9.27;;;7.80;84.30;;;;;;6277712;28;20234;-80
2021/04/03 06:22:50;;;;;;;12.30;7.70;;;8.70;89.80;;;;;;6275955;28;20069;-80
2021/04/03 06:25:58;;;;;;;12.60;9.20;;;9.30;90.40;;;;;;6275681;28;20032;-80
2021/04/03 06:28:59;;;;;;;12.02;8.13;;;9.30;72.50;;;;;;6275463;28;20117;-80
2021/04/03 06:32:00;;;;;;;11.20;7.57;;;9.80;70.70;;;;;;6275547;28;20040;-80
2021/04/03 06:35:01;;;;;;;11.50;7.55;;;10.20;68.50;;;;;;6275647;28;20047;-80
2021/04/03 06:38:25;;;;;;;10.02;7.93;;;10.50;91.40;;;;;;6275688;28;20024;-80
2021/04/03 06:41:26;;;;;;;9.60;5.97;;;10.60;63.90;;;;;;6292279;28;20483;-79
2021/04/03 06:44:27;;;;;;;8.70;6.90;;;11.10;64.20;;;;;;6275348;28;20048;-79
2021/04/03 06:47:28;;;;;;;9.93;6.72;;;;;;;;;;6292656;28;20379;-79
2021/04/03 06:50:31;;;;;;;10.18;6.07;;;11.00;60.80;;;;;;6291532;28;20020;-79
2021/04/03 06:53:34;;;;;;;10.52;5.55;;;11.20;78.20;;;;;;6291774;28;20451;-79
2021/04/03 06:56:35;;;;;;;7.00;5.47;;;11.70;78.20;;;;;;6275446;28;20021;-79
2021/04/03 06:59:35;;;;;;;7.75;6.00;;;11.10;78.60;;;;;;6275178;28;20025;-79
2021/04/03 07:02:44;;;;;;;8.77;6.18;;;11.40;77.50;;;;;;6275153;28;20612;-78
2021/04/03 07:05:45;;;;;;;6.60;4.97;;;11.50;90.10;;;;;;6291820;28;20036;-79
2021/04/03 07:08:46;;;;;;;6.85;4.90;;;;;;;;;;6291567;28;20394;-79
2021/04/03 07:11:48;;;;;;;37.85;22.25;;;10.90;90.60;;;;;;6291705;28;20020;-79
2021/04/03 07:14:49;;;;;;;6.60;4.70;;;;;;;;;;6274976;28;20032;-78
2021/04/03 07:17:50;;;;;;;8.65;5.82;;;10.60;69.50;;;;;;6292353;28;20028;-79
2021/04/03 07:20:51;;;;;;;5.97;4.20;;;11.00;90.60;;;;;;6275155;28;20144;-79
2021/04/03 07:23:52;;;;;;;7.32;4.40;;;;;;;;;;6274597;28;20505;-79
2021/04/03 07:26:52;;;;;;;11.38;4.78;;;10.20;69.20;;;;;;6291265;28;20036;-79
2021/04/03 07:29:54;;;;;;;10.07;4.65;;;10.00;79.30;;;;;;6291632;28;20060;-78
2021/04/03 07:32:55;;;;;;;5.30;4.40;;;9.90;61.40;;;;;;6291806;28;20029;-79
2021/04/03 07:36:03;;;;;;;6.75;4.55;;;9.30;82.20;;;;;;6274588;28;20040;-79
2021/04/03 07:39:05;;;;;;;5.82;3.97;;;9.20;60.90;;;;;;6274856;28;20058;-79
2021/04/03 07:42:06;;;;;;;7.15;4.82;;;10.00;63.10;;;;;;6279218;28;20173;-79
2021/04/03 07:45:30;;;;;;;7.03;4.68;;;10.30;60.00;;;;;;6280135;28;20080;-79
2021/04/03 07:48:49;;;;;;;7.97;4.72;;;10.50;56.00;;;;;;6291327;28;20036;-79
2021/04/03 07:51:49;;;;;;;6.05;4.20;;;10.90;56.00;;;;;;6279614;28;20032;-79
2021/04/03 07:54:50;;;;;;;8.05;4.53;;;10.80;58.30;;;;;;6279294;28;20032;-79
2021/04/03 07:57:51;;;;;;;5.15;3.60;;;11.30;58.20;;;;;;6295596;28;20028;-78
2021/04/03 08:00:52;;;;;;;5.40;3.85;;;11.80;56.00;;;;;;6279658;28;20379;-79
2021/04/03 08:03:57;;;;;;;5.35;4.07;;;12.00;55.10;;;;;;6296006;28;20032;-79
2021/04/03 08:06:58;;;;;;;7.00;4.13;;;12.20;54.90;;;;;;6279116;28;20036;-79
2021/04/03 08:09:59;;;;;;;4.47;3.55;;;12.50;53.90;;;;;;6262471;28;20037;-79
2021/04/03 08:12:59;;;;;;;5.47;4.13;;;12.40;52.40;;;;;;6279065;28;20036;-80
2021/04/03 08:16:01;;;;;;;6.32;3.70;;;12.30;71.80;;;;;;6278790;28;20033;-79
2021/04/03 08:19:02;;;;;;;5.07;3.55;;;12.20;53.10;;;;;;6279331;28;20036;-79
2021/04/03 08:22:07;;;;;;;7.00;3.80;;;12.90;52.60;;;;;;6278250;28;20074;-79
2021/04/03 08:25:08;;;;;;;7.53;4.72;;;12.00;51.50;;;;;;6279046;28;20383;-79
2021/04/03 08:28:19;;;;;;;5.90;3.75;;;12.40;52.20;;;;;;6295059;28;20512;-79
2021/04/03 08:31:27;;;;;;;9.07;4.70;;;11.10;54.10;;;;;;6278735;28;20157;-79
2021/04/03 08:34:28;;;;;;;7.40;3.80;;;9.50;55.20;;;;;;6296288;28;20458;-79
2021/04/03 08:37:28;;;;;;;6.15;4.15;;;8.30;74.90;;;;;;6295415;28;20021;-79
2021/04/03 08:40:30;;;;;;;7.40;4.28;;;8.20;61.30;;;;;;6278478;28;20156;-79
2021/04/03 08:43:31;;;;;;;6.45;4.03;;;8.50;63.40;;;;;;6296142;28;20072;-79
2021/04/03 08:46:31;;;;;;;5.28;3.88;;;8.60;62.90;;;;;;6294998;28;20045;-79
2021/04/03 08:49:37;;;;;;;7.30;4.13;;;8.70;60.70;;;;;;6296276;28;20029;-79
2021/04/03 08:52:40;;;;;;;6.70;3.85;;;8.80;62.20;;;;;;6278290;28;20141;-80
2021/04/03 08:55:41;;;;;;;10.50;4.43;;;8.30;60.60;;;;;;6277976;28;20032;-79
2021/04/03 08:58:41;;;;;;;6.15;4.40;;;8.30;62.60;;;;;;6277841;28;20082;-79
2021/04/03 09:01:47;;;;;;;6.35;5.00;;;8.30;61.80;;;;;;6277626;28;20028;-79
2021/04/03 09:04:47;;;;;;;6.85;4.50;;;8.40;63.60;;;;;;6278361;28;20063;-79
2021/04/03 09:07:48;;;;;;;7.43;4.97;;;8.70;64.70;;;;;;6277800;28;20037;-79
2021/04/03 09:10:53;;;;;;;7.07;4.65;;;8.10;82.70;;;;;;6294237;28;20021;-79
2021/04/03 09:13:56;;;;;;;12.98;7.90;;;7.90;92.40;;;;;;6295754;28;20111;-79
2021/04/03 09:16:56;;;;;;;;;;;8.70;77.30;;;;;;6261296;28;20032;-79
2021/04/03 09:20:08;;;;;;;6.25;3.75;;;9.20;78.10;;;;;;6293966;28;20288;-79
2021/04/03 09:23:08;;;;;;;8.18;4.82;;;9.60;77.00;;;;;;6261037;28;20033;-79
2021/04/03 09:26:09;;;;;;;8.63;4.20;;;;;;;;;;6277546;28;20449;-79
2021/04/03 09:29:11;;;;;;;5.68;3.67;;;;;;;;;;6295801;28;20447;-80
2021/04/03 09:32:13;;;;;;;5.88;3.80;;;10.10;86.80;;;;;;6294273;28;20086;-80
2021/04/03 09:35:20;;;;;;;8.02;4.07;;;10.30;68.50;;;;;;6293598;28;20074;-79
2021/04/03 09:38:32;;;;;;;7.38;4.18;;;10.40;86.20;;;;;;6293859;28;20039;-80
2021/04/03 09:41:33;;;;;;;7.68;3.85;;;10.60;85.60;;;;;;6277066;28;20044;-79
2021/04/03 09:44:34;;;;;;;8.15;4.32;;;10.40;68.40;;;;;;6277617;28;20032;-80
2021/04/03 09:47:35;;;;;;;6.18;3.90;;;10.20;56.50;;;;;;6260421;28;20501;-79
2021/04/03 09:50:35;;;;;;;7.53;4.10;;;10.00;56.80;;;;;;6293403;28;20028;-79
2021/04/03 09:53:37;;;;;;;4.45;3.60;;;9.90;56.30;;;;;;6276691;28;20200;-79
2021/04/03 09:56:38;;;;;;;5.30;3.70;;;9.90;56.40;;;;;;6276805;28;20032;-79
2021/04/03 09:59:42;;;;;;;6.13;4.05;;;10.90;55.60;;;;;;6276838;28;20474;-79
2021/04/03 10:02:42;;;;;;;4.63;3.78;;;11.20;72.00;;;;;;6292040;28;20116;-79
2021/04/03 10:05:43;;;;;;;6.65;4.35;;;11.20;54.80;;;;;;6292680;28;20036;-80
2021/04/03 10:08:44;;;;;;;6.38;4.22;;;12.00;52.40;;;;;;6275893;28;20032;-79
2021/04/03 10:11:44;;;;;;;5.60;3.60;;;12.70;51.60;;;;;;6292940;28;20036;-79
2021/04/03 10:14:45;;;;;;;5.72;4.10;;;12.70;66.10;;;;;;6259622;28;20032;-80
2021/04/03 10:17:46;;;;;;;8.00;3.75;;;12.90;48.70;;;;;;6260102;28;20024;-80
2021/04/03 10:20:46;;;;;;;9.50;4.53;;;12.70;49.80;;;;;;6292425;28;20083;-79
2021/04/03 10:23:47;;;;;;;5.53;3.67;;;13.00;49.50;;;;;;6292569;28;20029;-79
2021/04/03 10:26:47;;;;;;;11.80;7.35;;;13.70;47.10;;;;;;6259581;28;20040;-79
2021/04/03 10:29:48;;;;;;;5.03;4.00;;;13.60;46.30;;;;;;6292469;28;20438;-79
2021/04/03 10:32:49;;;;;;;14.00;10.30;;;13.30;46.20;;;;;;6292360;28;20071;-79
2021/04/03 10:35:49;;;;;;;34.80;29.50;;;13.40;46.70;;;;;;6292386;28;20037;-80
2021/04/03 10:38:50;;;;;;;9.15;7.28;;;13.30;46.80;;;;;;6292284;28;20064;-79
2021/04/03 10:41:50;;;;;;;6.00;4.25;;;13.20;64.40;;;;;;6292005;28;20060;-79
2021/04/03 10:44:51;;;;;;;6.00;4.13;;;13.40;48.00;;;;;;6293855;28;20049;-79
2021/04/03 10:47:52;;;;;;;6.03;4.43;;;12.80;48.00;;;;;;6291870;28;20039;-79
2021/04/03 10:50:52;;;;;;;7.50;4.53;;;11.30;54.00;;;;;;6275475;28;20619;-78
2021/04/03 10:53:53;;;;;;;5.93;4.00;;;10.80;73.40;;;;;;6275466;28;20032;-79
2021/04/03 10:56:53;;;;;;;6.65;4.10;;;10.40;73.10;;;;;;6275349;28;20395;-79
2021/04/03 10:59:54;;;;;;;5.13;4.13;;;10.20;54.60;;;;;;6292438;28;20035;-79
2021/04/03 11:02:55;;;;;;;7.18;4.28;;;9.90;77.20;;;;;;6274976;28;20032;-78
2021/04/03 11:05:56;;;;;;;10.73;4.20;;;9.90;56.60;;;;;;6291831;28;20036;-79
2021/04/03 11:08:56;;;;;;;5.68;3.75;;;10.20;75.20;;;;;;6292668;28;20036;-79
2021/04/03 11:11:57;;;;;;;7.90;4.57;;;10.10;75.00;;;;;;6292164;28;20040;-79
2021/04/03 11:14:58;;;;;;;5.90;4.47;;;10.60;58.00;;;;;;6273627;28;20062;-79
2021/04/03 11:17:58;;;;;;;7.05;4.32;;;11.10;58.30;;;;;;6291974;28;20040;-80
2021/04/03 11:21:00;;;;;;;7.15;3.95;;;;;;;;;;6275310;28;20021;-79
2021/04/03 11:24:00;;;;;;;7.53;4.25;;;13.00;48.70;;;;;;6292872;28;20032;-79
2021/04/03 11:27:01;;;;;;;5.85;3.55;;;13.50;51.60;;;;;;6274820;28;20459;-79
2021/04/03 11:30:16;;;;;;;6.28;3.83;;;14.40;48.30;;;;;;6274545;28;20025;-79
2021/04/03 11:33:16;;;;;;;7.95;4.22;;;14.40;45.60;;;;;;6291728;28;20084;-80
2021/04/03 11:36:17;;;;;;;4.70;3.75;;;13.80;46.70;;;;;;6292953;28;20037;-79
2021/04/03 11:39:17;;;;;;;6.28;4.28;;;13.40;48.40;;;;;;6291950;28;20379;-80
2021/04/03 11:42:18;;;;;;;5.78;4.13;;;14.90;65.80;;;;;;6257971;28;20406;-80
2021/04/03 11:45:19;;;;;;;4.93;4.10;;;14.60;48.50;;;;;;6290959;28;20060;-79
2021/04/03 11:48:20;;;;;;;5.63;4.22;;;14.00;48.40;;;;;;6274817;28;20033;-80
2021/04/03 11:51:20;;;;;;;4.80;3.97;;;11.90;72.30;;;;;;6291351;28;20036;-79
2021/04/03 11:54:21;;;;;;;6.22;4.20;;;11.80;71.70;;;;;;6257817;28;20029;-79
2021/04/03 11:57:21;;;;;;;7.35;3.83;;;11.40;74.90;;;;;;6274624;28;20032;-80
2021/04/03 12:00:23;;;;;;;5.53;3.92;;;10.50;74.70;;;;;;6290929;28;20052;-79
2021/04/03 12:03:24;;;;;;;6.40;4.47;;;;;;;;;;6257683;28;20067;-79
2021/04/03 12:06:24;;;;;;;8.38;4.18;;;10.60;75.30;;;;;;6290767;28;20036;-79
2021/04/03 12:09:25;;;;;;;6.80;3.92;;;11.60;72.70;;;;;;6290932;28;20036;-79
2021/04/03 12:12:26;;;;;;;6.00;4.05;;;;;;;;;;6274508;28;20028;-79
2021/04/03 12:15:26;;;;;;;7.00;4.32;;;11.20;73.00;;;;;;6290789;28;20483;-79
2021/04/03 12:18:27;;;;;;;5.22;3.85;;;11.30;55.40;;;;;;6274203;28;20136;-80
2021/04/03 12:21:29;;;;;;;6.43;4.78;;;10.10;76.50;;;;;;6274262;28;20036;-79
2021/04/03 12:24:29;;;;;;;7.90;3.93;;;9.60;77.40;;;;;;6274548;28;20024;-80
2021/04/03 12:27:30;;;;;;;8.57;4.10;;;9.50;77.40;;;;;;6293804;28;20071;-79
2021/04/03 12:30:31;;;;;;;5.28;3.83;;;9.60;59.70;;;;;;6261831;28;20086;-80
2021/04/03 12:33:31;;;;;;;7.13;5.05;;;9.50;59.30;;;;;;6278551;28;20462;-81
2021/04/03 12:36:32;;;;;;;10.73;4.68;;;;;;;;;;6294802;28;20511;-79
2021/04/03 12:39:33;;;;;;;5.68;3.67;;;9.80;77.80;;;;;;6288846;28;20066;-81
2021/04/03 12:42:34;;;;;;;8.80;3.95;;;10.10;75.60;;;;;;6294761;28;20541;-78
2021/04/03 12:45:34;;;;;;;5.13;3.92;;;10.20;57.40;;;;;;6295093;28;20440;-80
2021/04/03 12:48:35;;;;;;;9.63;4.50;;;10.80;73.40;;;;;;6294975;28;20111;-79
2021/04/03 12:51:35;;;;;;;4.07;3.63;;;10.80;54.20;;;;;;6295024;28;20029;-79
2021/04/03 12:54:36;;;;;;;5.68;4.18;;;11.00;54.40;;;;;;6294924;28;20039;-79
2021/04/03 12:57:37;;;;;;;6.43;4.72;;;11.10;54.50;;;;;;6294776;28;20032;-81
2021/04/03 13:00:37;;;;;;;7.28;4.22;;;11.40;58.00;;;;;;6261125;28;20414;-79
2021/04/03 13:03:38;;;;;;;5.57;4.30;;;11.40;55.40;;;;;;6294567;28;20170;-79
2021/04/03 13:06:38;;;;;;;5.90;3.47;;;10.70;55.80;;;;;;6294835;28;20045;-81
2021/04/03 13:09:39;;;;;;;5.07;4.40;;;10.50;55.80;;;;;;6294667;28;20037;-81
2021/04/03 13:12:39;;;;;;;8.07;4.03;;;10.80;73.80;;;;;;6293822;28;20024;-81
2021/04/03 13:15:40;;;;;;;7.07;5.15;;;10.70;55.70;;;;;;6277643;28;20028;-79
2021/04/03 13:18:40;;;;;;;7.22;4.30;;;10.60;56.50;;;;;;6278092;28;20436;-81
2021/04/03 13:21:41;;;;;;;6.03;4.20;;;11.00;77.20;;;;;;6277701;28;20627;-79
2021/04/03 13:24:42;;;;;;;8.90;5.28;;;;;;;;;;6277458;28;20074;-81
2021/04/03 13:27:43;;;;;;;7.28;4.15;;;10.90;76.10;;;;;;6294238;28;20024;-79
2021/04/03 13:30:43;;;;;;;6.93;3.85;;;11.00;72.10;;;;;;6293619;28;20040;-81
2021/04/03 13:33:44;;;;;;;10.40;4.43;;;11.00;71.30;;;;;;6260409;28;20116;-81
2021/04/03 13:36:44;;;;;;;8.93;4.07;;;11.20;85.80;;;;;;6277042;28;20067;-81
2021/04/03 13:39:45;;;;;;;6.95;4.10;;;11.00;84.40;;;;;;6276486;28;20059;-81
2021/04/03 13:42:46;;;;;;;6.50;4.78;;;11.20;85.00;;;;;;6293053;28;20065;-81
2021/04/03 13:45:46;;;;;;;6.80;4.18;;;11.50;86.10;;;;;;6293793;28;20048;-81
2021/04/03 13:48:47;;;;;;;5.18;4.30;;;;;;;;;;6294940;28;20048;-81
2021/04/03 13:51:48;;;;;;;6.43;4.35;;;;;;;;;;6294600;28;20078;-81
2021/04/03 13:54:49;;;;;;;6.28;4.63;;;;;;;;;;6276784;28;20037;-81
2021/04/03 13:57:50;;;;;;;10.35;5.32;;;;;;;;;;6294413;28;20020;-81
2021/04/03 14:00:51;;;;;;;6.03;3.58;;;;;;;;;;6294905;28;20383;-80
2021/04/03 14:03:52;;;;;;;6.60;3.70;;;11.20;84.80;;;;;;6294465;28;20128;-81
2021/04/03 14:06:53;;;;;;;6.82;4.07;;;;;;;;;;6293233;28;20376;-81
2021/04/03 14:09:54;;;;;;;7.43;4.22;;;11.10;86.30;;;;;;6293009;28;20069;-81
2021/04/03 14:12:55;;;;;;;5.25;3.72;;;;;;;;;;6293106;28;20471;-81
2021/04/03 14:15:55;;;;;;;6.32;4.05;;;11.30;82.10;;;;;;6293327;28;20043;-80
2021/04/03 14:18:56;;;;;;;7.10;4.18;;;;;;;;;;6292721;28;20039;-81
2021/04/03 14:21:57;;;;;;;8.05;3.40;;;11.30;65.20;;;;;;6292692;28;20466;-80
2021/04/03 14:24:57;;;;;;;4.20;3.30;;;11.80;69.70;;;;;;6275933;28;20119;-80
2021/04/03 14:27:58;;;;;;;7.15;3.90;;;12.00;71.20;;;;;;6294001;28;20028;-80
2021/04/03 14:30:59;;;;;;;6.20;3.95;;;11.70;71.50;;;;;;6275574;28;20025;-80
2021/04/03 14:34:00;;;;;;;7.25;4.13;;;11.10;72.60;;;;;;6276006;28;20020;-80
2021/04/03 14:37:01;;;;;;;6.47;3.50;;;11.10;54.80;;;;;;6275509;28;20103;-80
2021/04/03 14:40:03;;;;;;;6.35;3.60;;;10.30;73.90;;;;;;6293505;28;20036;-80
2021/04/03 14:43:04;;;;;;;4.10;3.40;;;10.30;55.10;;;;;;6275238;28;20084;-80
2021/04/03 14:46:05;;;;;;;6.35;3.80;;;10.20;73.30;;;;;;6291763;28;20052;-80
2021/04/03 14:49:06;;;;;;;5.78;3.13;;;;;;;;;;6292112;28;20025;-80
2021/04/03 14:52:06;;;;;;;7.03;3.78;;;10.50;51.50;;;;;;6292043;28;20808;-80
2021/04/03 14:55:09;;;;;;;10.02;3.63;;;10.70;55.10;;;;;;6259190;28;20035;-80
2021/04/03 14:58:09;;;;;;;5.90;3.50;;;11.10;53.00;;;;;;6293199;28;20501;-80
2021/04/03 15:01:12;;;;;;;5.15;3.53;;;11.30;53.70;;;;;;6291977;28;20037;-80
2021/04/03 15:04:12;;;;;;;7.45;3.95;;;11.80;51.20;;;;;;6275617;28;20082;-80
2021/04/03 15:07:13;;;;;;;5.22;3.35;;;12.20;51.00;;;;;;6275022;28;20040;-80
2021/04/03 15:10:14;;;;;;;4.13;3.72;;;11.90;51.20;;;;;;6274838;28;20025;-81
2021/04/03 15:13:14;;;;;;;6.47;3.80;;;11.10;53.30;;;;;;6291430;28;20432;-80
2021/04/03 15:16:15;;;;;;;7.50;4.40;;;10.50;56.70;;;;;;6275286;28;20028;-80
2021/04/03 15:19:16;;;;;;;5.50;3.83;;;;;;;;;;6293409;28;20032;-80
2021/04/03 15:22:18;;;;;;;11.40;6.03;;;;;;;;;;6291969;28;20033;-80
2021/04/03 15:25:18;;;;;;;6.82;3.50;;;9.90;53.10;;;;;;6274929;28;20036;-80
2021/04/03 15:28:19;;;;;;;5.97;3.28;;;10.60;75.50;;;;;;6293086;28;20024;-80
2021/04/03 15:31:20;;;;;;;5.05;3.38;;;10.30;57.30;;;;;;6291434;28;20073;-80
2021/04/03 15:34:20;;;;;;;6.47;3.53;;;10.80;72.20;;;;;;6291670;28;20459;-80
2021/04/03 15:37:21;;;;;;;4.93;3.20;;;11.10;70.40;;;;;;6258074;28;20031;-80
2021/04/03 15:40:21;;;;;;;5.80;3.55;;;11.10;52.60;;;;;;6274927;28;20928;-80
2021/04/03 15:43:22;;;;;;;7.70;3.47;;;11.40;52.40;;;;;;6257533;28;20060;-80
2021/04/03 15:46:22;;;;;;;5.03;3.08;;;11.30;72.10;;;;;;6291144;28;20032;-80
2021/04/03 15:49:23;;;;;;;5.57;3.80;;;10.90;72.80;;;;;;6274630;28;20078;-80
2021/04/03 15:52:24;;;;;;;6.93;3.70;;;10.50;72.80;;;;;;6291061;28;20467;-80
2021/04/03 15:55:24;;;;;;;6.00;3.65;;;10.60;72.90;;;;;;6274524;28;20039;-80